sensor_id;sensor_type;location;lat;lon;timestamp;P1;durP1;ratioP1;P2;durP2;ratioP2
27424;SDS011;15244;49.088;11.886;2022-10-31T00:01:56;11.88;;;6.53;;
27424;SDS011;15244;49.088;11.886;2022-10-31T00:06:59;11.85;;;5.90;;
27424;SDS011;15244;49.088;11.886;2022-10-31T00:12:00;9.38;;;5.40;;
27424;SDS011;15244;49.088;11.886;2022-10-31T00:17:06;7.88;;;4.90;;
27424;SDS011;15244;49.088;11.886;2022-10-31T00:22:10;6.88;;;4.55;;
27424;SDS011;15244;49.088;11.886;2022-10-31T00:27:17;7.93;;;4.63;;
27424;SDS011;15244;49.088;11.886;2022-10-31T00:32:21;8.32;;;4.60;;
27424;SDS011;15244;49.088;11.886;2022-10-31T00:37:23;10.43;;;4.22;;
27424;SDS011;15244;49.088;11.886;2022-10-31T00:42:24;5.57;;;4.30;;
27424;SDS011;15244;49.088;11.886;2022-10-31T00:47:31;8.50;;;4.15;;
27424;SDS011;15244;49.088;11.886;2022-10-31T00:52:35;8.85;;;4.10;;
27424;SDS011;15244;49.088;11.886;2022-10-31T00:57:37;8.27;;;4.43;;
27424;SDS011;15244;49.088;11.886;2022-10-31T01:02:39;8.65;;;4.82;;
27424;SDS011;15244;49.088;11.886;2022-10-31T01:07:44;11.75;;;5.22;;
27424;SDS011;15244;49.088;11.886;2022-10-31T01:12:47;10.57;;;4.85;;
27424;SDS011;15244;49.088;11.886;2022-10-31T01:17:49;6.57;;;4.47;;
27424;SDS011;15244;49.088;11.886;2022-10-31T01:22:54;8.50;;;5.13;;
27424;SDS011;15244;49.088;11.886;2022-10-31T01:28:00;10.27;;;4.63;;
27424;SDS011;15244;49.088;11.886;2022-10-31T01:33:02;16.42;;;4.90;;
27424;SDS011;15244;49.088;11.886;2022-10-31T01:38:06;9.95;;;5.18;;
27424;SDS011;15244;49.088;11.886;2022-10-31T01:43:13;11.93;;;6.05;;
27424;SDS011;15244;49.088;11.886;2022-10-31T01:48:18;8.10;;;5.30;;
27424;SDS011;15244;49.088;11.886;2022-10-31T01:53:25;11.38;;;6.45;;
27424;SDS011;15244;49.088;11.886;2022-10-31T01:58:28;10.60;;;5.30;;
27424;SDS011;15244;49.088;11.886;2022-10-31T02:03:34;12.95;;;5.78;;
27424;SDS011;15244;49.088;11.886;2022-10-31T02:08:41;7.60;;;5.55;;
27424;SDS011;15244;49.088;11.886;2022-10-31T02:13:46;11.43;;;5.13;;
27424;SDS011;15244;49.088;11.886;2022-10-31T02:18:50;6.35;;;4.65;;
27424;SDS011;15244;49.088;11.886;2022-10-31T02:34:37;7.95;;;4.55;;
27424;SDS011;15244;49.088;11.886;2022-10-31T02:39:57;7.78;;;5.32;;
27424;SDS011;15244;49.088;11.886;2022-10-31T02:45:34;6.88;;;4.75;;
27424;SDS011;15244;49.088;11.886;2022-10-31T02:50:55;8.65;;;5.35;;
27424;SDS011;15244;49.088;11.886;2022-10-31T02:56:05;8.43;;;4.85;;
27424;SDS011;15244;49.088;11.886;2022-10-31T03:01:23;6.32;;;5.25;;
27424;SDS011;15244;49.088;11.886;2022-10-31T03:07:00;15.15;;;5.60;;
27424;SDS011;15244;49.088;11.886;2022-10-31T03:17:37;7.00;;;5.20;;
27424;SDS011;15244;49.088;11.886;2022-10-31T03:22:48;7.03;;;5.13;;
27424;SDS011;15244;49.088;11.886;2022-10-31T03:27:54;11.60;;;6.00;;
27424;SDS011;15244;49.088;11.886;2022-10-31T03:32:57;10.15;;;5.80;;
27424;SDS011;15244;49.088;11.886;2022-10-31T03:38:04;10.52;;;5.82;;
27424;SDS011;15244;49.088;11.886;2022-10-31T03:43:13;10.60;;;6.65;;
27424;SDS011;15244;49.088;11.886;2022-10-31T03:48:24;8.93;;;6.20;;
27424;SDS011;15244;49.088;11.886;2022-10-31T03:59:00;7.85;;;5.63;;
27424;SDS011;15244;49.088;11.886;2022-10-31T04:04:26;7.13;;;6.07;;
27424;SDS011;15244;49.088;11.886;2022-10-31T04:09:33;9.00;;;5.93;;
27424;SDS011;15244;49.088;11.886;2022-10-31T04:14:37;4.47;;;4.00;;
27424;SDS011;15244;49.088;11.886;2022-10-31T04:19:45;3.92;;;3.63;;
27424;SDS011;15244;49.088;11.886;2022-10-31T04:24:47;6.55;;;4.20;;
27424;SDS011;15244;49.088;11.886;2022-10-31T04:29:52;5.80;;;4.63;;
27424;SDS011;15244;49.088;11.886;2022-10-31T04:34:56;2.92;;;2.72;;
27424;SDS011;15244;49.088;11.886;2022-10-31T04:39:57;3.33;;;2.67;;
27424;SDS011;15244;49.088;11.886;2022-10-31T04:45:12;4.22;;;2.80;;
27424;SDS011;15244;49.088;11.886;2022-10-31T04:50:24;7.70;;;4.40;;
27424;SDS011;15244;49.088;11.886;2022-10-31T04:55:29;6.43;;;5.43;;
27424;SDS011;15244;49.088;11.886;2022-10-31T05:00:53;7.20;;;4.60;;
27424;SDS011;15244;49.088;11.886;2022-10-31T05:05:57;11.38;;;6.40;;
27424;SDS011;15244;49.088;11.886;2022-10-31T05:11:03;6.30;;;4.72;;
27424;SDS011;15244;49.088;11.886;2022-10-31T05:16:10;5.22;;;4.82;;
27424;SDS011;15244;49.088;11.886;2022-10-31T05:21:36;4.90;;;4.55;;
27424;SDS011;15244;49.088;11.886;2022-10-31T05:26:38;5.00;;;4.60;;
27424;SDS011;15244;49.088;11.886;2022-10-31T05:31:43;3.50;;;3.30;;
27424;SDS011;15244;49.088;11.886;2022-10-31T05:37:06;4.03;;;3.72;;
27424;SDS011;15244;49.088;11.886;2022-10-31T05:42:10;5.38;;;3.58;;
27424;SDS011;15244;49.088;11.886;2022-10-31T05:47:15;3.88;;;3.53;;
27424;SDS011;15244;49.088;11.886;2022-10-31T05:52:38;4.50;;;4.00;;
27424;SDS011;15244;49.088;11.886;2022-10-31T05:58:00;5.38;;;4.97;;
27424;SDS011;15244;49.088;11.886;2022-10-31T06:03:06;4.85;;;4.13;;
27424;SDS011;15244;49.088;11.886;2022-10-31T06:08:28;5.47;;;4.60;;
27424;SDS011;15244;49.088;11.886;2022-10-31T06:13:38;3.50;;;3.30;;
27424;SDS011;15244;49.088;11.886;2022-10-31T06:18:49;3.85;;;3.55;;
27424;SDS011;15244;49.088;11.886;2022-10-31T06:23:53;8.60;;;4.22;;
27424;SDS011;15244;49.088;11.886;2022-10-31T06:29:13;3.70;;;3.40;;
27424;SDS011;15244;49.088;11.886;2022-10-31T06:34:31;3.83;;;3.53;;
27424;SDS011;15244;49.088;11.886;2022-10-31T06:39:35;7.00;;;5.10;;
27424;SDS011;15244;49.088;11.886;2022-10-31T06:44:38;5.45;;;4.95;;
27424;SDS011;15244;49.088;11.886;2022-10-31T06:50:01;5.15;;;4.75;;
27424;SDS011;15244;49.088;11.886;2022-10-31T06:55:05;5.13;;;4.63;;
27424;SDS011;15244;49.088;11.886;2022-10-31T07:00:07;5.18;;;4.63;;
27424;SDS011;15244;49.088;11.886;2022-10-31T07:05:20;6.88;;;4.20;;
27424;SDS011;15244;49.088;11.886;2022-10-31T07:10:26;3.63;;;3.30;;
27424;SDS011;15244;49.088;11.886;2022-10-31T07:15:38;4.10;;;3.80;;
27424;SDS011;15244;49.088;11.886;2022-10-31T07:20:42;4.53;;;4.13;;
27424;SDS011;15244;49.088;11.886;2022-10-31T07:25:43;4.85;;;3.95;;
27424;SDS011;15244;49.088;11.886;2022-10-31T07:30:55;9.57;;;4.70;;
27424;SDS011;15244;49.088;11.886;2022-10-31T07:36:05;4.85;;;4.35;;
27424;SDS011;15244;49.088;11.886;2022-10-31T07:41:07;9.52;;;5.00;;
27424;SDS011;15244;49.088;11.886;2022-10-31T07:46:16;9.93;;;5.45;;
27424;SDS011;15244;49.088;11.886;2022-10-31T07:51:39;5.45;;;4.90;;
27424;SDS011;15244;49.088;11.886;2022-10-31T07:57:18;7.28;;;4.97;;
27424;SDS011;15244;49.088;11.886;2022-10-31T08:02:25;10.45;;;5.63;;
27424;SDS011;15244;49.088;11.886;2022-10-31T08:07:55;6.13;;;5.05;;
27424;SDS011;15244;49.088;11.886;2022-10-31T08:13:07;8.27;;;5.50;;
27424;SDS011;15244;49.088;11.886;2022-10-31T08:18:16;8.18;;;5.30;;
27424;SDS011;15244;49.088;11.886;2022-10-31T08:23:22;12.48;;;5.63;;
27424;SDS011;15244;49.088;11.886;2022-10-31T08:28:28;7.13;;;5.18;;
27424;SDS011;15244;49.088;11.886;2022-10-31T08:33:33;7.22;;;5.38;;
27424;SDS011;15244;49.088;11.886;2022-10-31T08:38:52;8.43;;;5.75;;
27424;SDS011;15244;49.088;11.886;2022-10-31T08:44:01;14.85;;;7.63;;
27424;SDS011;15244;49.088;11.886;2022-10-31T08:49:03;10.18;;;7.70;;
27424;SDS011;15244;49.088;11.886;2022-10-31T08:54:05;7.72;;;6.97;;
27424;SDS011;15244;49.088;11.886;2022-10-31T08:59:09;9.15;;;6.70;;
27424;SDS011;15244;49.088;11.886;2022-10-31T09:04:29;11.07;;;6.70;;
27424;SDS011;15244;49.088;11.886;2022-10-31T09:09:36;8.68;;;6.30;;
27424;SDS011;15244;49.088;11.886;2022-10-31T09:14:40;7.07;;;6.35;;
27424;SDS011;15244;49.088;11.886;2022-10-31T09:19:53;7.20;;;6.50;;
27424;SDS011;15244;49.088;11.886;2022-10-31T09:25:02;11.30;;;7.47;;
27424;SDS011;15244;49.088;11.886;2022-10-31T09:30:04;8.30;;;7.30;;
27424;SDS011;15244;49.088;11.886;2022-10-31T09:35:07;7.20;;;6.20;;
27424;SDS011;15244;49.088;11.886;2022-10-31T09:40:10;10.85;;;7.78;;
27424;SDS011;15244;49.088;11.886;2022-10-31T09:50:47;9.35;;;8.05;;
27424;SDS011;15244;49.088;11.886;2022-10-31T09:56:19;11.23;;;9.15;;
27424;SDS011;15244;49.088;11.886;2022-10-31T10:01:46;9.80;;;8.18;;
27424;SDS011;15244;49.088;11.886;2022-10-31T10:12:31;10.30;;;8.57;;
27424;SDS011;15244;49.088;11.886;2022-10-31T10:23:57;16.85;;;9.80;;
27424;SDS011;15244;49.088;11.886;2022-10-31T10:34:27;15.68;;;11.30;;
27424;SDS011;15244;49.088;11.886;2022-10-31T10:39:35;13.55;;;8.98;;
27424;SDS011;15244;49.088;11.886;2022-10-31T10:44:48;16.02;;;9.80;;
27424;SDS011;15244;49.088;11.886;2022-10-31T10:50:17;14.63;;;9.55;;
27424;SDS011;15244;49.088;11.886;2022-10-31T10:55:32;13.98;;;8.93;;
27424;SDS011;15244;49.088;11.886;2022-10-31T11:00:40;13.80;;;9.57;;
27424;SDS011;15244;49.088;11.886;2022-10-31T11:05:52;12.40;;;9.55;;
27424;SDS011;15244;49.088;11.886;2022-10-31T11:11:18;13.32;;;10.05;;
27424;SDS011;15244;49.088;11.886;2022-10-31T11:16:31;13.35;;;10.73;;
27424;SDS011;15244;49.088;11.886;2022-10-31T11:21:41;12.50;;;9.60;;
27424;SDS011;15244;49.088;11.886;2022-10-31T11:27:14;14.73;;;9.35;;
27424;SDS011;15244;49.088;11.886;2022-10-31T11:32:26;17.38;;;9.55;;
27424;SDS011;15244;49.088;11.886;2022-10-31T11:37:33;14.15;;;9.98;;
27424;SDS011;15244;49.088;11.886;2022-10-31T11:42:40;13.90;;;8.55;;
27424;SDS011;15244;49.088;11.886;2022-10-31T11:47:45;18.95;;;7.90;;
27424;SDS011;15244;49.088;11.886;2022-10-31T11:52:50;13.98;;;9.40;;
27424;SDS011;15244;49.088;11.886;2022-10-31T11:57:58;11.25;;;7.50;;
27424;SDS011;15244;49.088;11.886;2022-10-31T12:03:15;9.40;;;7.68;;
27424;SDS011;15244;49.088;11.886;2022-10-31T12:08:21;12.27;;;7.57;;
27424;SDS011;15244;49.088;11.886;2022-10-31T12:18:52;15.32;;;8.43;;
27424;SDS011;15244;49.088;11.886;2022-10-31T12:24:04;11.15;;;7.97;;
27424;SDS011;15244;49.088;11.886;2022-10-31T12:29:31;10.95;;;8.15;;
27424;SDS011;15244;49.088;11.886;2022-10-31T12:50:56;15.82;;;9.50;;
27424;SDS011;15244;49.088;11.886;2022-10-31T12:56:12;14.05;;;10.23;;
27424;SDS011;15244;49.088;11.886;2022-10-31T13:01:35;14.93;;;11.85;;
27424;SDS011;15244;49.088;11.886;2022-10-31T13:07:02;15.90;;;11.65;;
27424;SDS011;15244;49.088;11.886;2022-10-31T13:22:44;18.30;;;12.25;;
27424;SDS011;15244;49.088;11.886;2022-10-31T13:28:02;16.25;;;11.18;;
27424;SDS011;15244;49.088;11.886;2022-10-31T13:33:23;15.25;;;11.18;;
27424;SDS011;15244;49.088;11.886;2022-10-31T13:44:27;18.45;;;11.57;;
27424;SDS011;15244;49.088;11.886;2022-10-31T13:49:37;16.08;;;10.52;;
27424;SDS011;15244;49.088;11.886;2022-10-31T13:54:44;15.97;;;10.33;;
27424;SDS011;15244;49.088;11.886;2022-10-31T14:05:26;16.27;;;10.02;;
27424;SDS011;15244;49.088;11.886;2022-10-31T14:10:32;14.95;;;9.65;;
27424;SDS011;15244;49.088;11.886;2022-10-31T14:15:36;14.15;;;9.85;;
27424;SDS011;15244;49.088;11.886;2022-10-31T14:20:42;17.58;;;10.05;;
27424;SDS011;15244;49.088;11.886;2022-10-31T14:25:45;14.68;;;8.80;;
27424;SDS011;15244;49.088;11.886;2022-10-31T14:30:57;11.63;;;8.38;;
27424;SDS011;15244;49.088;11.886;2022-10-31T14:41:30;14.88;;;7.93;;
27424;SDS011;15244;49.088;11.886;2022-10-31T14:52:23;15.82;;;8.13;;
27424;SDS011;15244;49.088;11.886;2022-10-31T14:57:26;11.10;;;7.80;;
27424;SDS011;15244;49.088;11.886;2022-10-31T15:02:50;11.52;;;8.20;;
27424;SDS011;15244;49.088;11.886;2022-10-31T15:13:51;13.73;;;8.25;;
27424;SDS011;15244;49.088;11.886;2022-10-31T15:18:56;16.17;;;9.27;;
27424;SDS011;15244;49.088;11.886;2022-10-31T15:24:02;13.30;;;8.63;;
27424;SDS011;15244;49.088;11.886;2022-10-31T15:29:05;11.13;;;8.55;;
27424;SDS011;15244;49.088;11.886;2022-10-31T15:34:18;22.42;;;10.65;;
27424;SDS011;15244;49.088;11.886;2022-10-31T15:39:25;16.20;;;9.48;;
27424;SDS011;15244;49.088;11.886;2022-10-31T15:44:39;15.50;;;9.50;;
27424;SDS011;15244;49.088;11.886;2022-10-31T15:49:56;16.40;;;9.85;;
27424;SDS011;15244;49.088;11.886;2022-10-31T15:55:03;15.25;;;9.50;;
27424;SDS011;15244;49.088;11.886;2022-10-31T16:00:22;12.43;;;9.35;;
27424;SDS011;15244;49.088;11.886;2022-10-31T16:05:43;19.00;;;10.02;;
27424;SDS011;15244;49.088;11.886;2022-10-31T16:10:50;13.90;;;9.37;;
27424;SDS011;15244;49.088;11.886;2022-10-31T16:15:55;15.15;;;9.10;;
27424;SDS011;15244;49.088;11.886;2022-10-31T16:21:23;17.80;;;9.27;;
27424;SDS011;15244;49.088;11.886;2022-10-31T16:26:29;15.60;;;9.55;;
27424;SDS011;15244;49.088;11.886;2022-10-31T16:31:39;16.77;;;9.23;;
27424;SDS011;15244;49.088;11.886;2022-10-31T16:36:43;13.13;;;8.48;;
27424;SDS011;15244;49.088;11.886;2022-10-31T16:41:50;14.20;;;8.45;;
27424;SDS011;15244;49.088;11.886;2022-10-31T16:47:09;14.10;;;8.85;;
27424;SDS011;15244;49.088;11.886;2022-10-31T16:52:22;16.10;;;8.68;;
27424;SDS011;15244;49.088;11.886;2022-10-31T16:57:30;13.85;;;7.75;;
27424;SDS011;15244;49.088;11.886;2022-10-31T17:02:32;12.85;;;7.72;;
27424;SDS011;15244;49.088;11.886;2022-10-31T17:07:34;12.95;;;7.97;;
27424;SDS011;15244;49.088;11.886;2022-10-31T17:12:36;13.82;;;7.32;;
27424;SDS011;15244;49.088;11.886;2022-10-31T17:17:39;12.30;;;8.43;;
27424;SDS011;15244;49.088;11.886;2022-10-31T17:22:41;10.48;;;8.82;;
27424;SDS011;15244;49.088;11.886;2022-10-31T17:27:42;11.52;;;8.73;;
27424;SDS011;15244;49.088;11.886;2022-10-31T17:32:48;11.18;;;7.70;;
27424;SDS011;15244;49.088;11.886;2022-10-31T17:37:55;16.95;;;7.57;;
27424;SDS011;15244;49.088;11.886;2022-10-31T17:42:57;14.00;;;7.90;;
27424;SDS011;15244;49.088;11.886;2022-10-31T17:48:02;12.35;;;8.30;;
27424;SDS011;15244;49.088;11.886;2022-10-31T17:53:06;11.65;;;7.63;;
27424;SDS011;15244;49.088;11.886;2022-10-31T17:58:09;12.93;;;7.63;;
27424;SDS011;15244;49.088;11.886;2022-10-31T18:03:17;13.52;;;7.78;;
27424;SDS011;15244;49.088;11.886;2022-10-31T18:08:19;14.60;;;7.80;;
27424;SDS011;15244;49.088;11.886;2022-10-31T18:13:30;12.77;;;7.65;;
27424;SDS011;15244;49.088;11.886;2022-10-31T18:18:33;8.52;;;6.88;;
27424;SDS011;15244;49.088;11.886;2022-10-31T18:23:35;11.35;;;8.07;;
27424;SDS011;15244;49.088;11.886;2022-10-31T18:28:36;14.75;;;7.53;;
27424;SDS011;15244;49.088;11.886;2022-10-31T18:33:38;10.88;;;7.22;;
27424;SDS011;15244;49.088;11.886;2022-10-31T18:38:43;10.23;;;6.32;;
27424;SDS011;15244;49.088;11.886;2022-10-31T18:43:49;8.05;;;6.20;;
27424;SDS011;15244;49.088;11.886;2022-10-31T18:48:53;10.85;;;6.07;;
27424;SDS011;15244;49.088;11.886;2022-10-31T18:53:57;10.50;;;5.85;;
27424;SDS011;15244;49.088;11.886;2022-10-31T18:59:01;5.60;;;4.88;;
27424;SDS011;15244;49.088;11.886;2022-10-31T19:04:10;8.70;;;5.10;;
27424;SDS011;15244;49.088;11.886;2022-10-31T19:09:17;9.80;;;4.88;;
27424;SDS011;15244;49.088;11.886;2022-10-31T19:14:20;6.55;;;4.82;;
27424;SDS011;15244;49.088;11.886;2022-10-31T19:19:22;10.43;;;5.32;;
27424;SDS011;15244;49.088;11.886;2022-10-31T19:24:33;9.93;;;5.50;;
27424;SDS011;15244;49.088;11.886;2022-10-31T19:29:38;9.05;;;6.30;;
27424;SDS011;15244;49.088;11.886;2022-10-31T19:34:43;9.27;;;6.78;;
27424;SDS011;15244;49.088;11.886;2022-10-31T19:39:47;15.23;;;7.05;;
27424;SDS011;15244;49.088;11.886;2022-10-31T19:44:50;6.90;;;6.05;;
27424;SDS011;15244;49.088;11.886;2022-10-31T19:50:11;7.63;;;5.43;;
27424;SDS011;15244;49.088;11.886;2022-10-31T19:55:13;6.10;;;5.50;;
27424;SDS011;15244;49.088;11.886;2022-10-31T20:00:18;8.70;;;6.43;;
27424;SDS011;15244;49.088;11.886;2022-10-31T20:05:22;11.07;;;6.00;;
27424;SDS011;15244;49.088;11.886;2022-10-31T20:10:26;13.38;;;6.68;;
27424;SDS011;15244;49.088;11.886;2022-10-31T20:15:28;13.13;;;7.40;;
27424;SDS011;15244;49.088;11.886;2022-10-31T20:25:44;13.43;;;8.82;;
27424;SDS011;15244;49.088;11.886;2022-10-31T20:30:51;16.25;;;9.25;;
27424;SDS011;15244;49.088;11.886;2022-10-31T20:35:56;15.85;;;8.88;;
27424;SDS011;15244;49.088;11.886;2022-10-31T20:41:01;13.57;;;9.80;;
27424;SDS011;15244;49.088;11.886;2022-10-31T20:46:08;17.08;;;10.75;;
27424;SDS011;15244;49.088;11.886;2022-10-31T20:51:13;16.40;;;9.85;;
27424;SDS011;15244;49.088;11.886;2022-10-31T20:56:22;18.90;;;11.07;;
27424;SDS011;15244;49.088;11.886;2022-10-31T21:01:26;14.27;;;9.95;;
27424;SDS011;15244;49.088;11.886;2022-10-31T21:06:32;17.27;;;10.65;;
27424;SDS011;15244;49.088;11.886;2022-10-31T21:11:38;17.63;;;12.25;;
27424;SDS011;15244;49.088;11.886;2022-10-31T21:16:41;18.95;;;12.13;;
27424;SDS011;15244;49.088;11.886;2022-10-31T21:21:47;18.73;;;11.75;;
27424;SDS011;15244;49.088;11.886;2022-10-31T21:26:49;15.35;;;11.38;;
27424;SDS011;15244;49.088;11.886;2022-10-31T21:31:51;15.82;;;11.20;;
27424;SDS011;15244;49.088;11.886;2022-10-31T21:36:55;14.98;;;11.32;;
27424;SDS011;15244;49.088;11.886;2022-10-31T21:41:59;18.00;;;11.30;;
27424;SDS011;15244;49.088;11.886;2022-10-31T21:47:05;14.18;;;11.80;;
27424;SDS011;15244;49.088;11.886;2022-10-31T21:52:07;19.65;;;11.95;;
27424;SDS011;15244;49.088;11.886;2022-10-31T21:57:11;19.63;;;11.93;;
27424;SDS011;15244;49.088;11.886;2022-10-31T22:02:14;15.73;;;11.45;;
27424;SDS011;15244;49.088;11.886;2022-10-31T22:07:17;18.75;;;12.40;;
27424;SDS011;15244;49.088;11.886;2022-10-31T22:12:21;16.38;;;12.60;;
27424;SDS011;15244;49.088;11.886;2022-10-31T22:17:23;21.05;;;12.98;;
27424;SDS011;15244;49.088;11.886;2022-10-31T22:22:24;18.13;;;12.85;;
27424;SDS011;15244;49.088;11.886;2022-10-31T22:27:26;19.92;;;12.82;;
27424;SDS011;15244;49.088;11.886;2022-10-31T22:32:29;16.38;;;12.77;;
27424;SDS011;15244;49.088;11.886;2022-10-31T22:37:33;17.70;;;13.30;;
27424;SDS011;15244;49.088;11.886;2022-10-31T22:42:34;24.08;;;14.27;;
27424;SDS011;15244;49.088;11.886;2022-10-31T22:47:39;21.23;;;14.93;;
27424;SDS011;15244;49.088;11.886;2022-10-31T22:52:46;18.42;;;13.80;;
27424;SDS011;15244;49.088;11.886;2022-10-31T22:57:47;22.00;;;14.82;;
27424;SDS011;15244;49.088;11.886;2022-10-31T23:02:54;24.00;;;14.18;;
27424;SDS011;15244;49.088;11.886;2022-10-31T23:07:55;19.23;;;14.25;;
27424;SDS011;15244;49.088;11.886;2022-10-31T23:13:00;23.45;;;13.48;;
27424;SDS011;15244;49.088;11.886;2022-10-31T23:18:20;18.13;;;13.50;;
27424;SDS011;15244;49.088;11.886;2022-10-31T23:23:42;17.73;;;14.15;;
27424;SDS011;15244;49.088;11.886;2022-10-31T23:28:44;20.27;;;14.95;;
27424;SDS011;15244;49.088;11.886;2022-10-31T23:33:48;20.67;;;14.32;;
27424;SDS011;15244;49.088;11.886;2022-10-31T23:38:52;20.85;;;14.48;;
27424;SDS011;15244;49.088;11.886;2022-10-31T23:43:54;30.90;;;22.52;;
27424;SDS011;15244;49.088;11.886;2022-10-31T23:48:58;21.77;;;14.95;;
27424;SDS011;15244;49.088;11.886;2022-10-31T23:54:00;29.63;;;20.20;;
27424;SDS011;15244;49.088;11.886;2022-10-31T23:59:06;30.70;;;20.90;;
